createdAt,value
2023-03-05T00:02:07.066Z,5.71
2023-03-05T00:04:33.748Z,5.73
2023-03-05T00:07:00.692Z,5.69
2023-03-05T00:09:27.596Z,5.69
2023-03-05T00:11:54.309Z,5.71
2023-03-05T00:14:20.935Z,5.64
2023-03-05T00:16:47.909Z,5.61
2023-03-05T00:19:14.739Z,5.46
2023-03-05T00:21:42.342Z,5.45
2023-03-05T00:24:13.236Z,5.32
2023-03-05T00:26:40.283Z,5.30
2023-03-05T00:29:08.090Z,5.36
2023-03-05T00:31:35.984Z,5.42
2023-03-05T00:34:06.231Z,5.46
2023-03-05T00:36:33.798Z,5.21
2023-03-05T00:39:00.919Z,5.26
2023-03-05T00:41:27.920Z,5.26
2023-03-05T00:43:54.647Z,5.29
2023-03-05T00:46:21.875Z,5.23
2023-03-05T00:48:48.951Z,5.24
2023-03-05T00:51:15.934Z,5.20
2023-03-05T00:53:42.536Z,5.18
2023-03-05T00:56:09.406Z,5.06
2023-03-05T00:58:37.077Z,5.04
2023-03-05T01:01:04.838Z,4.98
2023-03-05T01:03:33.378Z,4.99
2023-03-05T01:06:01.304Z,4.96
2023-03-05T01:08:28.270Z,4.96
2023-03-05T01:10:55.084Z,4.86
2023-03-05T01:13:21.998Z,4.93
2023-03-05T01:15:50.933Z,4.97
2023-03-05T01:18:19.368Z,4.92
2023-03-05T01:20:46.812Z,4.86
2023-03-05T01:23:13.534Z,4.90
2023-03-05T01:25:40.231Z,4.91
2023-03-05T01:28:07.808Z,4.90
2023-03-05T01:30:35.198Z,4.89
2023-03-05T01:33:02.324Z,4.82
2023-03-05T01:35:29.245Z,4.83
2023-03-05T01:37:56.243Z,4.74
2023-03-05T01:40:28.128Z,4.71
2023-03-05T01:43:08.665Z,4.68
2023-03-05T01:45:35.335Z,4.65
2023-03-05T01:48:02.224Z,4.53
2023-03-05T01:50:29.186Z,4.53
2023-03-05T01:53:01.654Z,4.57
2023-03-05T01:55:30.967Z,4.58
2023-03-05T01:58:05.022Z,4.56
2023-03-05T02:00:37.645Z,4.54
2023-03-05T02:03:07.060Z,4.52
2023-03-05T02:05:36.197Z,4.56
2023-03-05T02:08:07.124Z,4.53
2023-03-05T02:10:37.549Z,4.53
2023-03-05T02:13:14.217Z,4.57
2023-03-05T02:15:41.957Z,4.58
2023-03-05T02:18:10.015Z,4.66
2023-03-05T02:20:52.582Z,4.65
2023-03-05T02:23:21.140Z,4.64
2023-03-05T02:25:48.005Z,4.59
2023-03-05T02:28:30.462Z,4.55
2023-03-05T02:30:57.487Z,4.52
2023-03-05T02:33:24.288Z,4.46
2023-03-05T02:35:51.562Z,4.51
2023-03-05T02:38:21.125Z,4.46
2023-03-05T02:40:48.265Z,4.44
2023-03-05T02:43:16.965Z,4.31
2023-03-05T02:45:43.884Z,4.28
2023-03-05T02:48:10.594Z,4.31
2023-03-05T02:50:39.757Z,4.27
2023-03-05T02:53:06.806Z,4.26
2023-03-05T02:55:33.560Z,4.25
2023-03-05T02:58:00.388Z,4.21
2023-03-05T03:00:27.839Z,4.21
2023-03-05T03:02:55.222Z,4.19
2023-03-05T03:05:22.045Z,4.14
2023-03-05T03:07:49.214Z,4.10
2023-03-05T03:10:15.974Z,4.05
2023-03-05T03:12:44.430Z,4.03
2023-03-05T03:15:13.380Z,3.99
2023-03-05T03:17:40.021Z,3.92
2023-03-05T03:20:09.125Z,3.78
2023-03-05T03:22:35.956Z,3.66
2023-03-05T03:25:03.590Z,3.81
2023-03-05T03:27:30.331Z,3.80
2023-03-05T03:29:56.979Z,3.82
2023-03-05T03:32:23.613Z,3.91
2023-03-05T03:34:50.354Z,3.78
2023-03-05T03:37:16.953Z,3.78
2023-03-05T03:39:43.770Z,3.86
2023-03-05T03:42:10.472Z,3.83
2023-03-05T03:44:37.161Z,3.80
2023-03-05T03:47:03.906Z,3.79
2023-03-05T03:49:30.576Z,3.79
2023-03-05T03:51:58.271Z,3.78
2023-03-05T03:54:25.216Z,3.72
2023-03-05T03:56:52.639Z,3.66
2023-03-05T03:59:19.464Z,3.71
2023-03-05T04:01:46.234Z,3.67
2023-03-05T04:04:13.757Z,3.59
2023-03-05T04:06:40.741Z,3.60
2023-03-05T04:09:08.351Z,3.53
2023-03-05T04:11:36.281Z,3.49
2023-03-05T04:14:03.902Z,3.54
2023-03-05T04:16:30.648Z,3.54
2023-03-05T04:18:57.568Z,3.48
2023-03-05T04:21:24.239Z,3.47
2023-03-05T04:23:50.944Z,3.46
2023-03-05T04:26:17.556Z,3.40
2023-03-05T04:28:46.725Z,3.38
2023-03-05T04:31:13.312Z,3.32
2023-03-05T04:33:40.067Z,3.27
2023-03-05T04:36:07.227Z,3.29
2023-03-05T04:38:33.882Z,3.27
2023-03-05T04:41:00.621Z,3.32
2023-03-05T04:43:27.412Z,3.32
2023-03-05T04:45:55.218Z,3.32
2023-03-05T04:48:21.893Z,3.32
2023-03-05T04:50:48.482Z,3.34
2023-03-05T04:53:15.146Z,3.36
2023-03-05T04:55:42.882Z,3.38
2023-03-05T04:58:09.545Z,3.35
2023-03-05T05:00:36.200Z,3.27
2023-03-05T05:03:02.948Z,3.24
2023-03-05T05:05:29.708Z,3.28
2023-03-05T05:07:58.005Z,3.29
2023-03-05T05:10:26.313Z,3.26
2023-03-05T05:12:53.490Z,3.16
2023-03-05T05:15:20.773Z,3.16
2023-03-05T05:17:47.980Z,3.11
2023-03-05T05:20:16.052Z,3.13
2023-03-05T05:22:43.850Z,3.14
2023-03-05T05:25:11.200Z,3.10
2023-03-05T05:27:39.535Z,3.08
2023-03-05T05:30:07.665Z,3.05
2023-03-05T05:32:34.859Z,3.02
2023-03-05T05:35:01.640Z,3.03
2023-03-05T05:37:29.781Z,3.02
2023-03-05T05:39:56.644Z,3.06
2023-03-05T05:42:25.124Z,3.04
2023-03-05T05:44:52.011Z,2.92
2023-03-05T05:47:19.073Z,2.89
2023-03-05T05:49:45.715Z,2.93
2023-03-05T05:52:13.442Z,2.95
2023-03-05T05:54:40.223Z,2.97
2023-03-05T05:57:07.492Z,2.95
2023-03-05T05:59:34.449Z,2.87
2023-03-05T06:02:01.248Z,2.91
2023-03-05T06:04:27.854Z,2.84
2023-03-05T06:06:54.628Z,2.80
2023-03-05T06:09:21.213Z,2.80
2023-03-05T06:11:47.914Z,2.77
2023-03-05T06:14:14.564Z,2.82
2023-03-05T06:16:41.243Z,2.81
2023-03-05T06:19:11.805Z,2.81
2023-03-05T06:21:39.310Z,2.75
2023-03-05T06:24:06.935Z,2.71
2023-03-05T06:26:33.754Z,2.74
2023-03-05T06:29:00.550Z,2.74
2023-03-05T06:31:28.955Z,2.75
2023-03-05T06:33:58.157Z,2.75
2023-03-05T06:36:25.317Z,2.78
2023-03-05T06:38:53.386Z,2.83
2023-03-05T06:41:29.762Z,2.84
2023-03-05T06:43:58.788Z,2.82
2023-03-05T06:46:31.565Z,2.84
2023-03-05T06:49:00.431Z,2.82
2023-03-05T06:51:28.820Z,2.90
2023-03-05T06:53:59.144Z,2.87
2023-03-05T06:56:25.982Z,2.87
2023-03-05T06:58:53.220Z,2.98
2023-03-05T07:01:21.057Z,2.92
2023-03-05T07:03:52.645Z,2.95
2023-03-05T07:06:20.293Z,3.07
2023-03-05T07:08:47.652Z,3.15
2023-03-05T07:11:20.375Z,3.19
2023-03-05T07:13:50.670Z,3.34
2023-03-05T07:16:23.857Z,3.49
2023-03-05T07:18:51.412Z,3.61
2023-03-05T07:21:21.014Z,3.66
2023-03-05T07:23:48.198Z,3.74
2023-03-05T07:26:16.036Z,3.80
2023-03-05T07:28:43.367Z,3.86
2023-03-05T07:31:15.653Z,3.89
2023-03-05T07:33:42.330Z,3.84
2023-03-05T07:36:10.223Z,4.01
2023-03-05T07:38:37.563Z,4.06
2023-03-05T07:41:07.033Z,4.05
2023-03-05T07:43:33.847Z,4.14
2023-03-05T07:46:07.594Z,4.12
2023-03-05T07:48:34.653Z,4.23
2023-03-05T07:51:06.817Z,4.35
2023-03-05T07:53:33.762Z,4.38
2023-03-05T07:56:00.366Z,4.49
2023-03-05T07:58:27.307Z,4.55
2023-03-05T08:00:54.028Z,4.57
2023-03-05T08:03:20.671Z,4.65
2023-03-05T08:05:47.409Z,4.71
2023-03-05T08:08:14.305Z,4.76
2023-03-05T08:10:40.875Z,4.79
2023-03-05T08:13:08.133Z,4.86
2023-03-05T08:15:34.858Z,4.90
2023-03-05T08:18:01.576Z,4.91
2023-03-05T08:20:28.311Z,5.03
2023-03-05T08:22:55.119Z,5.11
2023-03-05T08:25:21.729Z,5.17
2023-03-05T08:27:49.124Z,5.22
2023-03-05T08:30:22.504Z,5.28
2023-03-05T08:32:49.928Z,5.33
2023-03-05T08:35:16.730Z,5.37
2023-03-05T08:37:43.744Z,5.41
2023-03-05T08:40:10.995Z,5.45
2023-03-05T08:42:37.657Z,5.44
2023-03-05T08:45:04.549Z,5.46
2023-03-05T08:47:31.461Z,5.61
2023-03-05T08:49:58.473Z,5.69
2023-03-05T08:52:27.326Z,5.73
2023-03-05T08:54:54.213Z,5.73
2023-03-05T08:57:21.114Z,5.74
2023-03-05T08:59:48.243Z,5.76
2023-03-05T09:02:15.069Z,5.84
2023-03-05T09:04:41.728Z,5.80
2023-03-05T09:07:09.025Z,5.90
2023-03-05T09:09:36.450Z,5.99
2023-03-05T09:12:03.416Z,6.03
2023-03-05T09:14:30.747Z,6.03
2023-03-05T09:16:58.114Z,6.08
2023-03-05T09:19:27.559Z,6.29
2023-03-05T09:21:56.907Z,6.29
2023-03-05T09:24:23.738Z,6.28
2023-03-05T09:26:50.494Z,6.37
2023-03-05T09:29:17.110Z,6.44
2023-03-05T09:31:44.139Z,6.66
2023-03-05T09:34:11.710Z,6.70
2023-03-05T09:36:38.562Z,6.75
2023-03-05T09:39:07.001Z,6.77
2023-03-05T09:41:37.823Z,7.00
2023-03-05T09:44:30.256Z,7.12
2023-03-05T09:47:10.040Z,7.42
2023-03-05T09:49:59.932Z,7.35
2023-03-05T09:52:50.419Z,7.53
2023-03-05T09:55:27.566Z,7.61
2023-03-05T09:57:58.538Z,7.66
2023-03-05T10:00:34.913Z,7.58
2023-03-05T10:03:07.096Z,7.67
2023-03-05T10:05:45.792Z,7.73
2023-03-05T10:08:14.401Z,7.94
2023-03-05T10:10:45.999Z,8.24
2023-03-05T10:13:22.947Z,8.26
2023-03-05T10:16:00.331Z,8.43
2023-03-05T10:18:40.495Z,8.53
2023-03-05T10:22:03.173Z,8.58
2023-03-05T10:25:08.182Z,8.56
2023-03-05T10:27:54.071Z,8.68
2023-03-05T10:30:32.917Z,8.70
2023-03-05T10:33:22.698Z,8.95
2023-03-05T10:36:08.258Z,8.75
2023-03-05T10:38:50.207Z,8.64
2023-03-05T10:41:21.842Z,8.69
2023-03-05T10:43:48.415Z,8.70
2023-03-05T10:46:17.457Z,8.90
2023-03-05T10:48:46.888Z,8.90
2023-03-05T10:51:37.289Z,9.12
2023-03-05T10:54:33.782Z,9.61
2023-03-05T10:57:19.064Z,9.83
2023-03-05T11:00:21.005Z,9.87
2023-03-05T11:03:02.658Z,9.71
2023-03-05T11:06:00.169Z,9.72
2023-03-05T11:08:29.627Z,10.14
2023-03-05T11:11:04.128Z,10.23
2023-03-05T11:13:31.196Z,10.22
2023-03-05T11:16:03.993Z,10.33
2023-03-05T11:18:34.521Z,10.48
2023-03-05T11:21:18.555Z,10.42
2023-03-05T11:24:04.815Z,10.76
2023-03-05T11:26:31.783Z,10.88
2023-03-05T11:29:00.926Z,11.14
2023-03-05T11:31:36.474Z,11.40
2023-03-05T11:34:08.406Z,11.69
2023-03-05T11:36:43.366Z,11.96
2023-03-05T11:39:11.804Z,12.07
2023-03-05T11:41:53.698Z,12.17
2023-03-05T11:44:29.463Z,12.08
2023-03-05T11:47:21.631Z,12.35
2023-03-05T11:49:54.297Z,12.29
2023-03-05T11:52:26.673Z,12.48
2023-03-05T11:55:04.185Z,12.54
2023-03-05T11:58:22.641Z,12.65
2023-03-05T12:00:49.845Z,12.92
2023-03-05T12:03:20.568Z,12.88
2023-03-05T12:06:13.283Z,12.95
2023-03-05T12:08:45.155Z,12.86
2023-03-05T12:11:19.206Z,13.04
2023-03-05T12:13:52.433Z,13.10
2023-03-05T12:16:30.965Z,13.12
2023-03-05T12:19:18.385Z,13.25
2023-03-05T12:21:50.184Z,13.04
2023-03-05T12:24:28.148Z,13.11
2023-03-05T12:27:04.004Z,13.38
2023-03-05T12:29:30.660Z,13.45
2023-03-05T12:31:58.235Z,13.45
2023-03-05T12:34:40.580Z,13.64
2023-03-05T12:37:34.647Z,13.56
2023-03-05T12:40:12.702Z,13.74
2023-03-05T12:42:39.233Z,13.73
2023-03-05T12:45:12.399Z,13.86
2023-03-05T12:47:44.520Z,13.72
2023-03-05T12:50:29.380Z,13.81
2023-03-05T12:53:04.343Z,13.77
2023-03-05T12:56:01.149Z,13.77
2023-03-05T12:58:45.006Z,13.73
2023-03-05T13:01:11.799Z,13.76
2023-03-05T13:03:58.583Z,13.81
2023-03-05T13:06:34.170Z,13.89
2023-03-05T13:09:02.202Z,13.80
2023-03-05T13:11:31.733Z,13.86
2023-03-05T13:14:00.789Z,13.94
2023-03-05T13:16:29.810Z,14.04
2023-03-05T13:19:01.370Z,14.08
2023-03-05T13:21:30.883Z,14.13
2023-03-05T13:24:00.372Z,14.19
2023-03-05T13:26:38.665Z,14.10
2023-03-05T13:29:20.375Z,14.23
2023-03-05T13:31:58.899Z,14.10
2023-03-05T13:34:46.237Z,14.23
2023-03-05T13:37:19.500Z,14.19
2023-03-05T13:40:07.229Z,14.05
2023-03-05T13:42:36.149Z,14.00
2023-03-05T13:45:20.266Z,14.08
2023-03-05T13:48:03.060Z,14.15
2023-03-05T13:50:31.421Z,14.21
2023-03-05T13:53:20.784Z,14.18
2023-03-05T13:55:52.971Z,14.15
2023-03-05T13:58:58.315Z,14.16
2023-03-05T14:01:32.571Z,14.14
2023-03-05T14:04:21.233Z,14.11
2023-03-05T14:07:06.505Z,14.26
2023-03-05T14:09:39.084Z,14.32
2023-03-05T14:12:21.171Z,14.32
2023-03-05T14:14:48.715Z,14.34
2023-03-05T14:17:32.626Z,14.39
2023-03-05T14:20:14.807Z,14.32
2023-03-05T14:22:46.374Z,14.25
2023-03-05T14:25:51.827Z,14.24
2023-03-05T14:28:18.436Z,14.18
2023-03-05T14:30:47.538Z,14.15
2023-03-05T14:33:15.357Z,14.21
2023-03-05T14:35:48.833Z,14.18
2023-03-05T14:38:28.387Z,14.22
2023-03-05T14:40:55.105Z,14.13
2023-03-05T14:43:21.702Z,14.18
2023-03-05T14:45:48.509Z,14.13
2023-03-05T14:48:18.760Z,14.03
2023-03-05T14:50:51.695Z,14.10
2023-03-05T14:53:25.717Z,14.06
2023-03-05T14:55:57.013Z,14.06
2023-03-05T14:58:27.865Z,13.99
2023-03-05T15:00:55.472Z,13.93
2023-03-05T15:03:23.082Z,13.99
2023-03-05T15:05:52.361Z,13.88
2023-03-05T15:08:29.376Z,13.83
2023-03-05T15:10:56.800Z,13.91
2023-03-05T15:13:23.405Z,13.87
2023-03-05T15:15:52.136Z,13.81
2023-03-05T15:18:21.689Z,13.83
2023-03-05T15:20:51.958Z,13.81
2023-03-05T15:23:19.686Z,13.81
2023-03-05T15:25:46.361Z,13.80
2023-03-05T15:28:13.169Z,13.79
2023-03-05T15:30:43.431Z,13.78
2023-03-05T15:33:13.412Z,13.75
2023-03-05T15:35:40.796Z,13.69
2023-03-05T15:38:08.184Z,13.69
2023-03-05T15:40:34.957Z,13.56
2023-03-05T15:43:01.614Z,13.56
2023-03-05T15:45:31.385Z,13.55
2023-03-05T15:47:58.634Z,13.48
2023-03-05T15:50:25.492Z,13.47
2023-03-05T15:52:52.364Z,13.45
2023-03-05T15:55:20.046Z,13.35
2023-03-05T15:57:49.197Z,13.33
2023-03-05T16:00:18.768Z,13.21
2023-03-05T16:02:45.407Z,13.17
2023-03-05T16:05:12.239Z,13.19
2023-03-05T16:07:42.208Z,13.19
2023-03-05T16:10:17.362Z,13.11
2023-03-05T16:12:46.675Z,13.08
2023-03-05T16:15:16.921Z,13.02
2023-03-05T16:17:45.576Z,13.04
2023-03-05T16:20:13.065Z,12.97
2023-03-05T16:22:39.936Z,12.99
2023-03-05T16:25:06.854Z,12.94
2023-03-05T16:27:33.770Z,12.86
2023-03-05T16:30:00.485Z,12.72
2023-03-05T16:32:27.306Z,12.65
2023-03-05T16:34:53.915Z,12.56
2023-03-05T16:37:22.892Z,12.47
2023-03-05T16:39:50.177Z,12.40
2023-03-05T16:42:17.415Z,12.31
2023-03-05T16:44:45.319Z,12.27
2023-03-05T16:47:12.816Z,12.21
2023-03-05T16:49:39.911Z,12.12
2023-03-05T16:52:18.247Z,12.03
2023-03-05T16:54:46.531Z,12.00
2023-03-05T16:57:13.588Z,11.94
2023-03-05T16:59:40.319Z,11.86
2023-03-05T17:02:07.116Z,11.78
2023-03-05T17:04:34.146Z,11.68
2023-03-05T17:07:00.903Z,11.59
2023-03-05T17:09:27.758Z,11.50
2023-03-05T17:11:55.015Z,11.42
2023-03-05T17:14:21.874Z,11.41
2023-03-05T17:16:48.726Z,11.36
2023-03-05T17:19:15.959Z,11.32
2023-03-05T17:21:42.905Z,11.31
2023-03-05T17:24:10.331Z,11.27
2023-03-05T17:26:37.735Z,11.12
2023-03-05T17:29:05.360Z,11.06
2023-03-05T17:31:32.473Z,11.02
2023-03-05T17:33:59.185Z,10.92
2023-03-05T17:36:26.303Z,10.89
2023-03-05T17:38:54.880Z,10.77
2023-03-05T17:41:22.066Z,10.66
2023-03-05T17:43:49.422Z,10.49
2023-03-05T17:46:16.855Z,10.45
2023-03-05T17:48:44.275Z,10.36
2023-03-05T17:51:13.936Z,10.30
2023-03-05T17:53:41.005Z,10.29
2023-03-05T17:56:12.153Z,10.25
2023-03-05T17:58:40.126Z,10.30
2023-03-05T18:01:07.839Z,10.22
2023-03-05T18:03:36.246Z,10.15
2023-03-05T18:06:03.826Z,10.17
2023-03-05T18:08:31.021Z,10.07
2023-03-05T18:10:57.672Z,9.94
2023-03-05T18:13:24.447Z,9.79
2023-03-05T18:15:51.086Z,9.81
2023-03-05T18:18:18.717Z,9.67
2023-03-05T18:20:45.898Z,9.75
2023-03-05T18:23:13.176Z,9.83
2023-03-05T18:25:40.190Z,9.88
2023-03-05T18:28:10.414Z,9.94
2023-03-05T18:30:38.932Z,9.89
2023-03-05T18:33:05.602Z,9.90
2023-03-05T18:35:33.472Z,9.83
2023-03-05T18:38:00.899Z,9.84
2023-03-05T18:40:29.955Z,9.87
2023-03-05T18:42:59.863Z,9.83
2023-03-05T18:45:26.738Z,9.74
2023-03-05T18:47:54.248Z,9.69
2023-03-05T18:50:22.547Z,9.67
2023-03-05T18:52:49.769Z,9.63
2023-03-05T18:55:28.674Z,9.59
2023-03-05T18:57:55.620Z,9.51
2023-03-05T19:00:27.068Z,9.55
2023-03-05T19:02:54.882Z,9.54
2023-03-05T19:05:22.123Z,9.48
2023-03-05T19:07:49.287Z,9.45
2023-03-05T19:10:17.674Z,9.39
2023-03-05T19:12:56.966Z,9.33
2023-03-05T19:15:24.053Z,9.21
2023-03-05T19:17:51.640Z,9.21
2023-03-05T19:20:18.852Z,9.11
2023-03-05T19:22:45.494Z,9.08
2023-03-05T19:25:12.586Z,9.07
2023-03-05T19:27:39.381Z,9.04
2023-03-05T19:30:07.051Z,8.98
2023-03-05T19:32:34.231Z,9.04
2023-03-05T19:35:01.527Z,8.96
2023-03-05T19:37:28.478Z,8.81
2023-03-05T19:39:56.752Z,8.71
2023-03-05T19:42:23.490Z,8.68
2023-03-05T19:44:50.333Z,8.66
2023-03-05T19:47:16.898Z,8.69
2023-03-05T19:49:43.618Z,8.70
2023-03-05T19:52:10.222Z,8.69
2023-03-05T19:54:36.914Z,8.75
2023-03-05T19:57:03.803Z,8.46
2023-03-05T19:59:30.593Z,8.36
2023-03-05T20:01:57.705Z,8.36
2023-03-05T20:04:25.172Z,8.51
2023-03-05T20:06:52.076Z,8.55
2023-03-05T20:09:19.226Z,8.63
2023-03-05T20:11:47.134Z,8.66
2023-03-05T20:14:14.622Z,8.70
2023-03-05T20:16:43.341Z,8.75
2023-03-05T20:19:16.350Z,8.76
2023-03-05T20:21:44.794Z,8.81
2023-03-05T20:24:14.478Z,8.75
2023-03-05T20:26:42.990Z,8.79
2023-03-05T20:29:10.415Z,8.83
2023-03-05T20:31:37.788Z,8.90
2023-03-05T20:34:09.802Z,8.75
2023-03-05T20:36:36.887Z,8.75
2023-03-05T20:39:05.161Z,8.71
2023-03-05T20:41:32.902Z,8.77
2023-03-05T20:43:59.652Z,8.73
2023-03-05T20:46:29.016Z,8.77
2023-03-05T20:48:59.099Z,8.72
2023-03-05T20:51:32.015Z,8.77
2023-03-05T20:54:02.632Z,8.72
2023-03-05T20:56:32.349Z,8.78
2023-03-05T20:59:05.052Z,8.74
2023-03-05T21:01:33.887Z,8.78
2023-03-05T21:04:01.448Z,8.76
2023-03-05T21:06:30.400Z,8.81
2023-03-05T21:08:57.333Z,8.76
2023-03-05T21:11:24.047Z,8.81
2023-03-05T21:13:50.704Z,8.83
2023-03-05T21:16:23.120Z,8.85
2023-03-05T21:18:51.214Z,8.84
2023-03-05T21:21:18.412Z,8.86
2023-03-05T21:23:45.348Z,8.87
2023-03-05T21:26:13.399Z,8.86
2023-03-05T21:28:40.932Z,8.91
2023-03-05T21:31:10.885Z,8.88
2023-03-05T21:33:37.799Z,8.87
2023-03-05T21:36:05.157Z,8.76
2023-03-05T21:38:33.914Z,8.86
2023-03-05T21:41:01.445Z,8.93
2023-03-05T21:43:31.101Z,8.91
2023-03-05T21:45:59.366Z,8.90
2023-03-05T21:48:25.978Z,8.91
2023-03-05T21:50:53.119Z,8.81
2023-03-05T21:53:19.908Z,8.83
2023-03-05T21:56:02.663Z,8.86
2023-03-05T21:58:31.585Z,8.77
2023-03-05T22:00:58.981Z,8.70
2023-03-05T22:03:27.189Z,8.72
2023-03-05T22:05:55.245Z,8.72
2023-03-05T22:08:22.860Z,8.67
2023-03-05T22:10:49.549Z,8.71
2023-03-05T22:13:17.926Z,8.77
2023-03-05T22:15:49.967Z,8.78
2023-03-05T22:18:25.160Z,8.74
2023-03-05T22:20:52.950Z,8.61
2023-03-05T22:23:22.337Z,8.60
2023-03-05T22:26:15.654Z,8.61
2023-03-05T22:28:42.622Z,8.60
2023-03-05T22:31:10.046Z,8.42
2023-03-05T22:33:37.054Z,8.48
2023-03-05T22:36:11.859Z,8.52
2023-03-05T22:38:39.092Z,8.42
2023-03-05T22:41:14.017Z,8.40
2023-03-05T22:43:41.341Z,8.34
2023-03-05T22:46:13.444Z,8.41
2023-03-05T22:48:40.881Z,8.32
2023-03-05T22:51:09.002Z,8.35
2023-03-05T22:53:35.878Z,8.23
2023-03-05T22:56:11.614Z,8.22
2023-03-05T22:58:38.853Z,8.23
2023-03-05T23:01:22.578Z,8.25
2023-03-05T23:03:54.796Z,8.27
2023-03-05T23:06:21.799Z,8.34
2023-03-05T23:08:48.363Z,8.32
2023-03-05T23:11:15.141Z,8.33
2023-03-05T23:13:42.296Z,8.37
2023-03-05T23:16:09.752Z,8.35
2023-03-05T23:18:36.578Z,8.32
2023-03-05T23:21:03.420Z,8.28
2023-03-05T23:23:30.064Z,8.28
2023-03-05T23:25:56.720Z,8.30
2023-03-05T23:28:23.337Z,8.24
2023-03-05T23:30:50.139Z,8.22
2023-03-05T23:33:19.506Z,8.17
2023-03-05T23:35:52.259Z,8.13
2023-03-05T23:38:19.437Z,8.14
2023-03-05T23:40:48.928Z,8.18
2023-03-05T23:43:17.733Z,8.18
2023-03-05T23:45:48.073Z,8.13
2023-03-05T23:48:18.180Z,8.19
2023-03-05T23:50:47.858Z,8.17
2023-03-05T23:53:21.558Z,8.17
2023-03-05T23:55:49.138Z,8.19
2023-03-05T23:58:16.279Z,8.19
